Time;durP1;ratioP1;P1;durP2;ratioP2;P2;SDS_P1;SDS_P2;PMS_P1;PMS_P2;Temp;Humidity;BMP_temperature;BMP_pressure;BME280_temperature;BME280_humidity;BME280_pressure;Samples;Min_cycle;Max_cycle;Signal;HPM_P1;HPM_P2
2023/04/08 00:00:13;;;;;;;21.58;7.50;;;;;;;;;;5065972;28;20655;-45
2023/04/08 05:07:10;;;;;;;8.38;4.50;;;;;;;;;;5065988;28;20091;-44
2023/04/08 05:09:36;;;;;;;8.82;4.75;;;;;;;;;;5069168;28;20535;-45
2023/04/08 05:12:02;;;;;;;7.05;3.97;;;;;;;;;;5069380;28;20180;-45
2023/04/08 05:14:29;;;;;;;7.07;4.10;;;;;;;;;;5068829;28;20210;-44
2023/04/08 05:16:56;;;;;;;5.00;3.30;;;;;;;;;;5069205;28;20076;-45
2023/04/08 05:19:23;;;;;;;5.00;3.00;;;;;;;;;;5069327;28;20123;-43
2023/04/08 05:21:49;;;;;;;5.07;3.28;;;;;;;;;;5068875;28;20085;-44
2023/04/08 05:24:15;;;;;;;7.13;4.03;;;;;;;;;;5068905;28;20080;-43
2023/04/08 05:26:41;;;;;;;4.55;2.80;;;;;;;;;;5069143;28;20459;-44
2023/04/08 05:29:07;;;;;;;5.53;3.10;;;;;;;;;;5069004;28;20077;-44
2023/04/08 05:31:33;;;;;;;4.22;3.20;;;;;;;;;;5068833;28;20673;-44
2023/04/08 05:33:59;;;;;;;5.22;3.42;;;;;;;;;;5068807;28;20069;-44
2023/04/08 05:36:26;;;;;;;5.28;3.22;;;;;;;;;;5069054;28;20069;-45
2023/04/08 05:38:52;;;;;;;4.70;3.38;;;;;;;;;;5068737;28;20080;-47
2023/04/08 05:41:18;;;;;;;6.22;4.00;;;;;;;;;;5068790;28;20448;-44
2023/04/08 05:43:44;;;;;;;4.97;3.60;;;;;;;;;;5068691;28;20069;-44
2023/04/08 05:46:10;;;;;;;3.88;2.97;;;;;;;;;;5068949;28;20873;-43
2023/04/08 05:48:36;;;;;;;4.00;3.00;;;;;;;;;;5068960;28;20081;-44
2023/04/08 05:51:02;;;;;;;3.88;2.83;;;;;;;;;;5068458;28;20099;-44
2023/04/08 05:53:28;;;;;;;3.75;2.90;;;;;;;;;;5068609;28;20069;-44
2023/04/08 05:55:54;;;;;;;4.03;3.05;;;;;;;;;;5068574;28;20486;-44
2023/04/08 05:58:21;;;;;;;5.05;2.90;;;;;;;;;;5068427;28;20073;-46
2023/04/08 06:00:47;;;;;;;3.95;2.80;;;;;;;;;;5068550;28;20069;-44
2023/04/08 06:03:14;;;;;;;4.28;2.88;;;;;;;;;;5067591;28;20073;-43
2023/04/08 06:05:40;;;;;;;3.75;2.80;;;;;;;;;;5067824;28;20073;-45
2023/04/08 06:08:06;;;;;;;3.47;2.72;;;;;;;;;;5070735;28;20081;-44
2023/04/08 06:10:32;;;;;;;4.20;3.03;;;;;;;;;;5088725;28;20077;-43
2023/04/08 06:12:58;;;;;;;4.40;2.55;;;;;;;;;;5079071;28;20597;-46
2023/04/08 06:15:25;;;;;;;3.55;2.50;;;;;;;;;;5067800;28;20521;-44
2023/04/08 06:17:52;;;;;;;4.68;3.25;;;;;;;;;;5068323;28;20100;-44
2023/04/08 06:20:18;;;;;;;6.30;3.08;;;;;;;;;;5068399;28;20065;-44
2023/04/08 06:22:44;;;;;;;4.38;2.97;;;;;;;;;;5068336;28;20073;-43
2023/04/08 06:25:10;;;;;;;4.03;3.05;;;;;;;;;;5067763;28;20085;-44
2023/04/08 06:27:36;;;;;;;3.85;2.92;;;;;;;;;;5068077;28;20088;-46
2023/04/08 06:30:02;;;;;;;4.22;2.67;;;;;;;;;;5068256;28;20428;-43
2023/04/08 06:32:28;;;;;;;3.72;2.80;;;;;;;;;;5068535;28;20089;-43
2023/04/08 06:34:55;;;;;;;4.25;3.13;;;;;;;;;;5068252;28;20554;-43
2023/04/08 06:37:21;;;;;;;6.13;3.58;;;;;;;;;;5068312;28;20133;-43
2023/04/08 06:39:47;;;;;;;6.93;4.93;;;;;;;;;;5067585;28;20467;-43
2023/04/08 06:42:13;;;;;;;8.82;4.95;;;;;;;;;;5067060;28;20077;-43
2023/04/08 06:44:39;;;;;;;7.60;4.65;;;;;;;;;;5070767;28;20105;-44
2023/04/08 06:47:05;;;;;;;10.70;5.57;;;;;;;;;;5071883;28;20088;-45
2023/04/08 06:49:32;;;;;;;12.55;6.07;;;;;;;;;;5072008;28;20123;-44
2023/04/08 06:51:58;;;;;;;13.25;6.47;;;;;;;;;;5072342;28;20202;-43
2023/04/08 06:54:24;;;;;;;9.40;4.85;;;;;;;;;;5070520;28;20088;-44
2023/04/08 06:56:50;;;;;;;7.88;4.38;;;;;;;;;;5069116;28;21167;-43
2023/04/08 06:59:16;;;;;;;8.77;4.32;;;;;;;;;;5065257;28;20547;-44
2023/04/08 07:01:42;;;;;;;9.40;4.78;;;;;;;;;;5077421;28;20463;-43
2023/04/08 07:04:09;;;;;;;10.13;4.70;;;;;;;;;;5071388;28;20084;-43
2023/04/08 07:06:35;;;;;;;8.73;4.55;;;;;;;;;;5071744;28;20085;-44
2023/04/08 07:09:01;;;;;;;7.15;4.00;;;;;;;;;;5057852;28;20130;-43
2023/04/08 07:11:28;;;;;;;11.40;5.50;;;;;;;;;;5065087;28;20520;-44
2023/04/08 07:13:54;;;;;;;13.15;6.25;;;;;;;;;;5054128;28;20151;-43
2023/04/08 07:16:20;;;;;;;12.35;5.72;;;;;;;;;;5061014;28;20069;-44
2023/04/08 07:18:46;;;;;;;9.68;5.00;;;;;;;;;;5065224;28;20078;-43
2023/04/08 07:21:12;;;;;;;10.57;4.97;;;;;;;;;;5059217;28;20096;-43
2023/04/08 07:23:38;;;;;;;7.95;4.55;;;;;;;;;;5066144;28;20524;-43
2023/04/08 07:26:04;;;;;;;9.52;4.32;;;;;;;;;;5068593;28;20077;-44
2023/04/08 07:28:31;;;;;;;12.18;5.78;;;;;;;;;;5069421;28;20096;-44
2023/04/08 07:31:07;;;;;;;10.73;5.55;;;;;;;;;;5069409;28;20081;-45
2023/04/08 07:33:33;;;;;;;10.20;5.00;;;;;;;;;;5050654;28;20075;-45
2023/04/08 07:35:59;;;;;;;9.68;5.43;;;;;;;;;;5069845;28;20416;-43
2023/04/08 07:38:26;;;;;;;7.65;4.05;;;;;;;;;;5069144;28;20076;-43
2023/04/08 07:40:52;;;;;;;7.65;3.78;;;;;;;;;;5068793;28;20069;-43
2023/04/08 07:43:18;;;;;;;6.18;3.33;;;;;;;;;;5069105;28;20080;-44
2023/04/08 07:45:44;;;;;;;9.95;4.57;;;;;;;;;;5069080;28;20074;-44
2023/04/08 07:48:10;;;;;;;11.02;6.20;;;;;;;;;;5068881;28;20080;-44
2023/04/08 07:50:37;;;;;;;11.70;6.00;;;;;;;;;;5069050;28;20099;-44
2023/04/08 07:53:03;;;;;;;11.20;5.93;;;;;;;;;;5069098;28;20655;-46
2023/04/08 07:55:33;;;;;;;9.60;5.25;;;;;;;;;;5068817;28;20134;-44
2023/04/08 07:58:00;;;;;;;11.18;5.70;;;;;;;;;;5069414;28;20061;-44
2023/04/08 08:00:26;;;;;;;9.70;4.90;;;;;;;;;;5069285;28;20081;-42
2023/04/08 08:02:52;;;;;;;7.10;3.83;;;;;;;;;;5068920;28;20788;-44
2023/04/08 08:05:18;;;;;;;6.65;3.90;;;;;;;;;;5069233;28;20068;-44
2023/04/08 08:07:44;;;;;;;6.53;4.00;;;;;;;;;;5068795;28;20078;-47
2023/04/08 08:10:10;;;;;;;6.30;3.58;;;;;;;;;;5067769;28;21012;-47
2023/04/08 08:12:37;;;;;;;4.25;2.80;;;;;;;;;;5067031;28;20171;-46
2023/04/08 08:15:04;;;;;;;5.15;3.30;;;;;;;;;;5067317;28;20100;-47
2023/04/08 08:17:32;;;;;;;5.22;3.20;;;;;;;;;;5067865;28;20076;-46
2023/04/08 08:19:58;;;;;;;4.93;2.85;;;;;;;;;;5067583;28;20076;-43
2023/04/08 08:22:24;;;;;;;3.60;2.50;;;;;;;;;;5067291;28;20072;-44
2023/04/08 08:24:55;;;;;;;5.22;2.95;;;;;;;;;;5066830;28;20497;-43
2023/04/08 08:27:21;;;;;;;4.32;3.08;;;;;;;;;;5067054;28;20534;-44
2023/04/08 08:29:48;;;;;;;3.88;2.60;;;;;;;;;;5066969;28;20080;-43
2023/04/08 08:32:14;;;;;;;4.13;2.50;;;;;;;;;;5067019;28;20085;-43
2023/04/08 08:34:40;;;;;;;3.72;2.30;;;;;;;;;;5066787;28;20077;-46
2023/04/08 08:37:06;;;;;;;2.88;2.10;;;;;;;;;;5066672;28;20223;-45
2023/04/08 08:39:32;;;;;;;2.88;2.20;;;;;;;;;;5067510;28;20077;-43
2023/04/08 08:41:58;;;;;;;2.10;1.77;;;;;;;;;;5067151;28;20065;-43
2023/04/08 08:44:25;;;;;;;2.58;1.95;;;;;;;;;;5066528;28;20077;-44
2023/04/08 08:46:52;;;;;;;2.42;1.88;;;;;;;;;;5066760;28;20152;-44
2023/04/08 08:49:18;;;;;;;2.45;2.08;;;;;;;;;;5066391;28;20077;-45
2023/04/08 08:51:48;;;;;;;2.70;2.10;;;;;;;;;;5066323;28;20513;-44
2023/04/08 08:54:15;;;;;;;1.98;1.55;;;;;;;;;;5066512;28;20073;-43
2023/04/08 08:56:42;;;;;;;2.15;1.83;;;;;;;;;;5066414;28;20152;-44
2023/04/08 08:59:10;;;;;;;2.08;1.80;;;;;;;;;;5066006;28;20081;-45
2023/04/08 09:01:37;;;;;;;2.17;1.80;;;;;;;;;;5066459;28;20065;-43
2023/04/08 09:04:06;;;;;;;2.58;1.92;;;;;;;;;;5066112;28;20161;-44
2023/04/08 09:06:32;;;;;;;2.72;1.98;;;;;;;;;;5051391;28;20077;-43
2023/04/08 09:08:59;;;;;;;2.25;1.75;;;;;;;;;;5046585;28;20092;-43
2023/04/08 09:11:25;;;;;;;2.13;1.92;;;;;;;;;;5045900;28;20092;-44
2023/04/08 09:13:51;;;;;;;2.20;2.00;;;;;;;;;;5045931;28;20073;-44
2023/04/08 09:16:19;;;;;;;2.17;1.75;;;;;;;;;;5046081;28;20157;-44
2023/04/08 09:18:47;;;;;;;2.50;1.63;;;;;;;;;;5046593;28;20425;-44
2023/04/08 09:21:15;;;;;;;2.10;1.90;;;;;;;;;;5046530;28;20156;-44
2023/04/08 09:23:41;;;;;;;2.50;1.90;;;;;;;;;;5046738;28;20080;-46
2023/04/08 09:26:14;;;;;;;2.28;1.70;;;;;;;;;;5046038;28;20074;-43
2023/04/08 09:28:42;;;;;;;2.80;2.13;;;;;;;;;;5045477;28;20088;-45
2023/04/08 09:31:27;;;;;;;2.50;2.08;;;;;;;;;;5046078;28;20077;-43
2023/04/08 09:33:54;;;;;;;2.50;1.83;;;;;;;;;;5045754;28;20324;-44
2023/04/08 09:36:21;;;;;;;2.25;1.80;;;;;;;;;;5045493;28;20076;-43
2023/04/08 09:38:47;;;;;;;1.90;1.40;;;;;;;;;;5045649;28;20073;-43
2023/04/08 09:41:17;;;;;;;1.73;1.20;;;;;;;;;;5046086;28;20143;-44
2023/04/08 09:43:47;;;;;;;1.80;1.38;;;;;;;;;;5046051;28;20079;-43
2023/04/08 09:46:14;;;;;;;1.40;1.30;;;;;;;;;;5046083;28;20077;-44
2023/04/08 09:48:46;;;;;;;1.45;1.35;;;;;;;;;;5045277;28;20070;-43
2023/04/08 09:51:15;;;;;;;1.85;1.33;;;;;;;;;;5046002;28;20093;-43
2023/04/08 09:53:44;;;;;;;1.55;1.40;;;;;;;;;;5045532;28;20623;-45
2023/04/08 09:56:12;;;;;;;1.75;1.60;;;;;;;;;;5045150;28;20153;-43
2023/04/08 09:59:07;;;;;;;2.28;1.83;;;;;;;;;;5045255;28;20074;-44
2023/04/08 10:01:38;;;;;;;3.15;1.77;;;;;;;;;;5034189;28;20746;-45
2023/04/08 10:04:05;;;;;;;1.83;1.55;;;;;;;;;;5065741;28;20130;-46
2023/04/08 10:06:32;;;;;;;1.45;1.30;;;;;;;;;;5065317;28;20073;-43
2023/04/08 10:08:58;;;;;;;1.48;1.20;;;;;;;;;;5065571;28;20590;-43
2023/04/08 10:11:25;;;;;;;1.30;1.20;;;;;;;;;;5065184;28;20153;-43
2023/04/08 10:13:51;;;;;;;1.95;1.67;;;;;;;;;;5065569;28;20072;-43
2023/04/08 10:16:20;;;;;;;2.78;1.90;;;;;;;;;;5065532;28;20065;-46
2023/04/08 10:18:48;;;;;;;2.88;2.00;;;;;;;;;;5064952;28;20088;-43
2023/04/08 10:21:33;;;;;;;3.10;2.40;;;;;;;;;;5065995;28;20428;-43
2023/04/08 10:24:04;;;;;;;3.67;2.50;;;;;;;;;;5065708;28;20075;-44
2023/04/08 10:26:43;;;;;;;3.38;2.33;;;;;;;;;;5065050;28;20079;-45
2023/04/08 10:29:18;;;;;;;2.88;2.05;;;;;;;;;;5047215;28;20436;-46
2023/04/08 10:31:45;;;;;;;2.95;1.95;;;;;;;;;;5065853;28;20586;-43
2023/04/08 10:34:16;;;;;;;1.88;1.30;;;;;;;;;;5066297;28;20069;-43
2023/04/08 10:36:43;;;;;;;2.20;1.42;;;;;;;;;;5066226;28;20065;-44
2023/04/08 10:39:09;;;;;;;1.92;1.25;;;;;;;;;;5065338;28;20065;-45
2023/04/08 10:41:41;;;;;;;2.08;1.40;;;;;;;;;;5064956;28;20109;-44
2023/04/08 10:44:16;;;;;;;1.25;1.10;;;;;;;;;;5065382;28;20069;-44
2023/04/08 10:46:43;;;;;;;1.58;1.38;;;;;;;;;;5047837;28;20525;-44
2023/04/08 10:49:10;;;;;;;2.20;1.50;;;;;;;;;;5065107;28;20061;-44
2023/04/08 10:51:36;;;;;;;1.30;1.00;;;;;;;;;;5064941;28;20230;-44
2023/04/08 10:54:06;;;;;;;1.80;1.38;;;;;;;;;;5046809;28;20296;-43
2023/04/08 10:56:32;;;;;;;2.60;1.70;;;;;;;;;;5064758;28;20110;-43
2023/04/08 10:58:59;;;;;;;1.70;1.20;;;;;;;;;;5065324;28;20510;-44
2023/04/08 11:01:26;;;;;;;2.08;1.67;;;;;;;;;;5064876;28;20100;-44
2023/04/08 11:03:52;;;;;;;1.85;1.33;;;;;;;;;;5064938;28;20073;-45
2023/04/08 11:06:18;;;;;;;1.30;1.10;;;;;;;;;;5065212;28;20073;-44
2023/04/08 11:08:46;;;;;;;1.30;1.10;;;;;;;;;;5053084;28;20487;-48
2023/04/08 11:11:13;;;;;;;0.90;0.80;;;;;;;;;;5044452;28;20081;-44
2023/04/08 11:13:40;;;;;;;1.05;0.95;;;;;;;;;;5045241;28;20475;-44
2023/04/08 11:16:07;;;;;;;1.10;1.00;;;;;;;;;;5044917;28;20120;-47
2023/04/08 11:18:39;;;;;;;0.77;0.77;;;;;;;;;;5044723;28;20070;-44
2023/04/08 11:21:09;;;;;;;0.80;0.80;;;;;;;;;;5044974;28;20111;-44
2023/04/08 11:23:35;;;;;;;0.90;0.90;;;;;;;;;;5044796;28;20073;-43
2023/04/08 11:26:01;;;;;;;1.40;1.05;;;;;;;;;;5044941;28;20124;-45
2023/04/08 11:28:29;;;;;;;1.23;0.98;;;;;;;;;;5045464;28;20065;-43
2023/04/08 11:30:55;;;;;;;1.13;1.00;;;;;;;;;;5047006;28;20104;-43
2023/04/08 11:33:21;;;;;;;1.10;1.00;;;;;;;;;;5030440;28;20231;-45
2023/04/08 11:35:50;;;;;;;1.35;1.00;;;;;;;;;;5048361;28;20069;-44
2023/04/08 11:38:16;;;;;;;0.75;0.75;;;;;;;;;;5048281;28;20103;-43
2023/04/08 11:40:53;;;;;;;1.30;1.02;;;;;;;;;;5048135;28;20069;-43
2023/04/08 11:43:19;;;;;;;1.65;1.40;;;;;;;;;;5048294;28;20152;-43
2023/04/08 11:45:45;;;;;;;1.23;1.13;;;;;;;;;;5048229;28;20551;-46
2023/04/08 11:48:12;;;;;;;1.38;1.20;;;;;;;;;;5048073;28;20166;-45
2023/04/08 11:50:40;;;;;;;0.85;0.70;;;;;;;;;;5047962;28;20080;-45
2023/04/08 11:53:19;;;;;;;1.10;1.00;;;;;;;;;;5048103;28;20105;-43
2023/04/08 11:55:45;;;;;;;0.82;0.82;;;;;;;;;;5047837;28;20076;-44
2023/04/08 11:58:11;;;;;;;1.02;0.85;;;;;;;;;;5048205;28;20077;-45
2023/04/08 12:00:38;;;;;;;1.15;1.00;;;;;;;;;;5047770;28;20080;-44
2023/04/08 12:03:05;;;;;;;0.80;0.80;;;;;;;;;;5048374;28;20160;-44
2023/04/08 12:05:32;;;;;;;0.70;0.70;;;;;;;;;;5048391;28;20065;-44
2023/04/08 12:07:59;;;;;;;0.68;0.63;;;;;;;;;;5048401;28;20070;-45
2023/04/08 12:10:25;;;;;;;1.13;0.80;;;;;;;;;;5048049;28;20520;-47
2023/04/08 12:12:51;;;;;;;0.70;0.70;;;;;;;;;;5047868;28;20093;-46
2023/04/08 12:15:18;;;;;;;0.80;0.80;;;;;;;;;;5047785;28;20460;-45
2023/04/08 12:17:44;;;;;;;0.65;0.65;;;;;;;;;;5047867;28;20070;-47
2023/04/08 12:20:11;;;;;;;0.60;0.60;;;;;;;;;;5047908;28;20466;-46
2023/04/08 12:22:37;;;;;;;0.50;0.50;;;;;;;;;;5047011;28;20180;-47
2023/04/08 12:25:03;;;;;;;1.25;0.70;;;;;;;;;;5047333;28;20077;-46
2023/04/08 12:27:32;;;;;;;0.60;0.60;;;;;;;;;;5047620;28;20069;-44
2023/04/08 12:29:59;;;;;;;0.60;0.60;;;;;;;;;;5047897;28;20139;-44
2023/04/08 12:32:25;;;;;;;0.70;0.60;;;;;;;;;;5047689;28;20100;-45
2023/04/08 12:34:51;;;;;;;0.60;0.60;;;;;;;;;;5047016;28;20571;-47
2023/04/08 12:37:19;;;;;;;0.70;0.70;;;;;;;;;;5047076;28;20070;-47
2023/04/08 12:39:45;;;;;;;1.60;0.68;;;;;;;;;;5046960;28;20088;-45
2023/04/08 12:42:11;;;;;;;4.00;2.55;;;;;;;;;;5046470;28;20078;-44
2023/04/08 12:44:37;;;;;;;2.92;1.77;;;;;;;;;;5060722;28;20087;-46
2023/04/08 12:47:03;;;;;;;5.00;2.70;;;;;;;;;;5066651;28;20150;-44
2023/04/08 12:49:29;;;;;;;8.00;4.05;;;;;;;;;;5068725;28;20092;-46
2023/04/08 12:51:55;;;;;;;10.60;5.82;;;;;;;;;;5068572;28;20101;-46
2023/04/08 12:54:22;;;;;;;16.48;8.02;;;;;;;;;;5065947;28;20084;-45
2023/04/08 12:56:48;;;;;;;21.90;10.50;;;;;;;;;;5045561;28;20077;-44
2023/04/08 12:59:14;;;;;;;15.43;8.02;;;;;;;;;;5066460;28;20069;-44
2023/04/08 13:01:40;;;;;;;15.48;6.53;;;;;;;;;;5065817;28;20130;-47
2023/04/08 13:04:07;;;;;;;10.70;5.13;;;;;;;;;;5061517;28;20516;-44
2023/04/08 13:06:33;;;;;;;8.05;4.18;;;;;;;;;;5049907;28;20286;-47
2023/04/08 13:08:59;;;;;;;5.85;3.17;;;;;;;;;;5062133;28;20210;-46
2023/04/08 13:11:25;;;;;;;3.97;2.38;;;;;;;;;;5048245;28;20104;-46
2023/04/08 13:13:52;;;;;;;3.60;1.92;;;;;;;;;;5047507;28;20074;-48
2023/04/08 13:16:19;;;;;;;3.00;1.65;;;;;;;;;;5060246;28;20411;-44
2023/04/08 13:18:45;;;;;;;1.80;1.40;;;;;;;;;;5065830;28;20103;-44
2023/04/08 13:21:11;;;;;;;1.40;1.10;;;;;;;;;;5066999;28;20080;-44
2023/04/08 13:23:38;;;;;;;1.33;1.00;;;;;;;;;;5067046;28;20138;-46
2023/04/08 13:26:05;;;;;;;0.93;0.80;;;;;;;;;;5067509;28;20105;-45
2023/04/08 13:28:31;;;;;;;1.17;0.80;;;;;;;;;;5067102;28;20566;-44
2023/04/08 13:30:57;;;;;;;1.00;0.80;;;;;;;;;;5067848;28;20073;-48
2023/04/08 13:33:23;;;;;;;0.85;0.70;;;;;;;;;;5064906;28;20100;-45
2023/04/08 13:35:49;;;;;;;0.80;0.65;;;;;;;;;;5064923;28;20463;-46
2023/04/08 13:38:15;;;;;;;0.80;0.70;;;;;;;;;;5065718;28;20083;-46
2023/04/08 13:40:42;;;;;;;0.50;0.50;;;;;;;;;;5067275;28;20073;-46
2023/04/08 13:43:08;;;;;;;0.57;0.57;;;;;;;;;;5067615;28;20118;-44
2023/04/08 13:45:34;;;;;;;0.43;0.43;;;;;;;;;;5067885;28;20555;-48
2023/04/08 13:48:00;;;;;;;0.40;0.40;;;;;;;;;;5068149;28;20070;-44
2023/04/08 13:50:27;;;;;;;0.50;0.50;;;;;;;;;;5067236;28;20639;-44
2023/04/08 13:52:53;;;;;;;0.50;0.47;;;;;;;;;;5066451;28;20085;-46
2023/04/08 13:55:19;;;;;;;0.93;0.60;;;;;;;;;;5067227;28;20081;-44
2023/04/08 13:57:45;;;;;;;0.40;0.40;;;;;;;;;;5067460;28;20072;-47
2023/04/08 14:00:12;;;;;;;0.52;0.50;;;;;;;;;;5065739;28;20096;-44
2023/04/08 14:02:38;;;;;;;0.57;0.50;;;;;;;;;;5064090;28;20115;-44
2023/04/08 14:05:04;;;;;;;0.40;0.40;;;;;;;;;;5065182;28;20139;-46
2023/04/08 14:07:30;;;;;;;0.70;0.50;;;;;;;;;;5065506;28;20179;-44
2023/04/08 14:09:56;;;;;;;0.60;0.60;;;;;;;;;;5065719;28;20085;-48
2023/04/08 14:12:22;;;;;;;0.40;0.40;;;;;;;;;;5064575;28;20632;-45
2023/04/08 14:14:49;;;;;;;0.50;0.50;;;;;;;;;;5065372;28;20150;-46
2023/04/08 14:17:15;;;;;;;0.50;0.50;;;;;;;;;;5043976;28;20116;-46
2023/04/08 14:19:41;;;;;;;1.65;0.50;;;;;;;;;;5064983;28;20536;-46
2023/04/08 14:22:07;;;;;;;1.10;1.00;;;;;;;;;;5070071;28;20531;-47
2023/04/08 14:24:34;;;;;;;0.50;0.50;;;;;;;;;;5068060;28;20073;-45
2023/04/08 14:27:00;;;;;;;0.80;0.60;;;;;;;;;;5047110;28;20080;-45
2023/04/08 14:29:26;;;;;;;0.50;0.50;;;;;;;;;;5064074;28;20085;-45
2023/04/08 14:31:52;;;;;;;0.40;0.40;;;;;;;;;;5065225;28;20092;-46
2023/04/08 14:34:19;;;;;;;0.60;0.60;;;;;;;;;;5064756;28;20597;-44
2023/04/08 14:36:45;;;;;;;0.50;0.50;;;;;;;;;;5065532;28;20068;-44
2023/04/08 14:39:11;;;;;;;0.65;0.60;;;;;;;;;;5064951;28;20118;-47
2023/04/08 14:41:37;;;;;;;0.50;0.50;;;;;;;;;;5069200;28;20133;-48
2023/04/08 14:44:04;;;;;;;0.47;0.47;;;;;;;;;;5065426;28;20073;-46
2023/04/08 14:46:30;;;;;;;0.60;0.50;;;;;;;;;;5064663;28;20077;-46
2023/04/08 14:48:57;;;;;;;1.63;0.68;;;;;;;;;;5065741;28;20306;-45
2023/04/08 14:51:23;;;;;;;0.70;0.60;;;;;;;;;;5064514;28;20081;-47
2023/04/08 14:53:50;;;;;;;0.57;0.47;;;;;;;;;;5046181;28;20146;-46
2023/04/08 14:56:16;;;;;;;0.40;0.40;;;;;;;;;;5064196;28;20069;-45
2023/04/08 14:58:42;;;;;;;0.40;0.40;;;;;;;;;;5067514;28;20590;-48
2023/04/08 15:01:08;;;;;;;1.17;0.68;;;;;;;;;;5064635;28;20614;-48
2023/04/08 15:03:34;;;;;;;1.20;1.10;;;;;;;;;;5082809;28;20757;-48
2023/04/08 15:06:00;;;;;;;1.27;1.02;;;;;;;;;;5076421;28;20073;-44
2023/04/08 15:08:27;;;;;;;1.58;1.33;;;;;;;;;;5068151;28;20085;-49
2023/04/08 15:10:53;;;;;;;2.03;1.52;;;;;;;;;;5068359;28;20081;-48
2023/04/08 15:13:19;;;;;;;1.63;1.30;;;;;;;;;;5067959;28;20891;-45
2023/04/08 15:15:45;;;;;;;1.30;1.20;;;;;;;;;;5067514;28;20105;-46
2023/04/08 15:18:11;;;;;;;1.27;0.88;;;;;;;;;;5067681;28;20088;-45
2023/04/08 15:20:37;;;;;;;0.60;0.60;;;;;;;;;;5067748;28;20119;-48
2023/04/08 15:23:03;;;;;;;0.82;0.70;;;;;;;;;;5067599;28;20164;-48
2023/04/08 15:25:29;;;;;;;1.45;0.85;;;;;;;;;;5069014;28;20112;-47
2023/04/08 15:27:55;;;;;;;1.05;0.88;;;;;;;;;;5068967;28;20631;-45
2023/04/08 15:30:23;;;;;;;0.85;0.85;;;;;;;;;;5067779;28;20100;-45
2023/04/08 15:32:52;;;;;;;0.60;0.60;;;;;;;;;;5067884;28;20096;-44
2023/04/08 15:35:18;;;;;;;1.23;0.70;;;;;;;;;;5049016;28;20074;-45
2023/04/08 15:37:44;;;;;;;0.70;0.50;;;;;;;;;;5067413;28;20486;-47
2023/04/08 15:40:11;;;;;;;0.40;0.40;;;;;;;;;;5066958;28;20065;-45
2023/04/08 15:42:37;;;;;;;0.52;0.50;;;;;;;;;;5075894;28;20089;-45
2023/04/08 15:45:03;;;;;;;0.73;0.70;;;;;;;;;;5049772;28;20614;-44
2023/04/08 15:47:29;;;;;;;0.68;0.60;;;;;;;;;;5050206;28;20594;-47
2023/04/08 15:49:56;;;;;;;0.60;0.60;;;;;;;;;;5066923;28;20160;-46
2023/04/08 15:52:22;;;;;;;0.40;0.40;;;;;;;;;;5067135;28;20667;-44
2023/04/08 15:54:48;;;;;;;0.40;0.40;;;;;;;;;;5067344;28;20079;-48
2023/04/08 15:57:14;;;;;;;0.55;0.50;;;;;;;;;;5067997;28;20077;-43
2023/04/08 15:59:40;;;;;;;1.10;0.40;;;;;;;;;;5077352;28;20105;-45
2023/04/08 16:02:06;;;;;;;0.70;0.40;;;;;;;;;;5075601;28;20175;-45
2023/04/08 16:04:32;;;;;;;0.47;0.47;;;;;;;;;;5067137;28;20558;-45
2023/04/08 16:06:58;;;;;;;0.52;0.52;;;;;;;;;;5068373;28;20076;-44
2023/04/08 16:09:25;;;;;;;0.40;0.40;;;;;;;;;;5066234;28;20081;-48
2023/04/08 16:11:52;;;;;;;0.70;0.52;;;;;;;;;;5067013;28;20087;-45
2023/04/08 16:14:18;;;;;;;0.47;0.47;;;;;;;;;;5062871;28;20103;-46
2023/04/08 16:16:46;;;;;;;0.70;0.60;;;;;;;;;;5066675;28;20531;-45
2023/04/08 16:19:12;;;;;;;0.40;0.40;;;;;;;;;;5066492;28;20096;-45
2023/04/08 16:21:38;;;;;;;0.40;0.40;;;;;;;;;;5065884;28;20100;-49
2023/04/08 16:24:04;;;;;;;1.15;0.60;;;;;;;;;;5062330;28;20621;-45
2023/04/08 16:26:30;;;;;;;0.50;0.50;;;;;;;;;;5066048;28;20448;-45
2023/04/08 16:28:56;;;;;;;0.80;0.60;;;;;;;;;;5049132;28;20200;-47
2023/04/08 16:31:22;;;;;;;0.40;0.40;;;;;;;;;;5066600;28;20085;-44
2023/04/08 16:33:49;;;;;;;0.70;0.70;;;;;;;;;;5067347;28;20076;-48
2023/04/08 16:36:15;;;;;;;0.40;0.40;;;;;;;;;;5048505;28;20077;-45
2023/04/08 16:38:42;;;;;;;0.63;0.60;;;;;;;;;;5066759;28;20076;-48
2023/04/08 16:41:08;;;;;;;0.70;0.50;;;;;;;;;;5064891;28;20077;-44
2023/04/08 16:43:36;;;;;;;0.50;0.50;;;;;;;;;;5067062;28;20114;-45
2023/04/08 16:46:09;;;;;;;0.63;0.55;;;;;;;;;;5066445;28;20131;-47
2023/04/08 16:48:36;;;;;;;0.50;0.50;;;;;;;;;;5049166;28;20101;-45
2023/04/08 16:51:05;;;;;;;0.57;0.50;;;;;;;;;;5068063;28;20153;-47
2023/04/08 16:53:31;;;;;;;1.23;0.80;;;;;;;;;;5049847;28;20089;-45
2023/04/08 16:55:57;;;;;;;0.82;0.60;;;;;;;;;;5068065;28;20088;-45
2023/04/08 16:58:23;;;;;;;1.23;0.75;;;;;;;;;;5064686;28;20081;-45
2023/04/08 17:00:50;;;;;;;1.15;0.88;;;;;;;;;;5067348;28;20073;-47
2023/04/08 17:03:16;;;;;;;1.30;0.90;;;;;;;;;;5053170;28;20077;-44
2023/04/08 17:05:42;;;;;;;1.00;0.90;;;;;;;;;;5067958;28;20081;-47
2023/04/08 17:08:08;;;;;;;1.45;1.20;;;;;;;;;;5047267;28;20092;-45
2023/04/08 17:10:34;;;;;;;0.90;0.90;;;;;;;;;;5065283;28;20459;-45
2023/04/08 17:13:00;;;;;;;0.88;0.63;;;;;;;;;;5066973;28;20642;-47
2023/04/08 17:15:26;;;;;;;0.90;0.80;;;;;;;;;;5059266;28;20073;-46
2023/04/08 17:17:52;;;;;;;0.65;0.50;;;;;;;;;;5067098;28;20827;-45
2023/04/08 17:20:18;;;;;;;1.08;0.82;;;;;;;;;;5066155;28;20704;-46
2023/04/08 17:22:45;;;;;;;1.02;0.70;;;;;;;;;;5066498;28;20541;-45
2023/04/08 17:25:11;;;;;;;0.95;0.77;;;;;;;;;;5057802;28;20437;-47
2023/04/08 17:27:37;;;;;;;1.58;1.15;;;;;;;;;;5063936;28;20088;-47
2023/04/08 17:30:04;;;;;;;1.75;1.50;;;;;;;;;;5066319;28;20081;-44
2023/04/08 17:32:30;;;;;;;0.80;0.80;;;;;;;;;;5065626;28;20108;-46
2023/04/08 17:34:56;;;;;;;0.85;0.85;;;;;;;;;;5066862;28;20156;-45
2023/04/08 17:37:22;;;;;;;1.40;1.10;;;;;;;;;;5047466;28;20211;-44
2023/04/08 17:39:48;;;;;;;1.27;1.17;;;;;;;;;;5047824;28;20519;-48
2023/04/08 17:42:15;;;;;;;1.00;0.90;;;;;;;;;;5065727;28;20147;-47
2023/04/08 17:44:43;;;;;;;0.90;0.80;;;;;;;;;;5050534;28;20751;-45
2023/04/08 17:47:09;;;;;;;1.55;0.95;;;;;;;;;;5070789;28;20068;-46
2023/04/08 17:49:35;;;;;;;0.95;0.80;;;;;;;;;;5064597;28;20167;-44
2023/04/08 17:52:01;;;;;;;1.63;0.90;;;;;;;;;;5064522;28;20103;-44
2023/04/08 17:54:27;;;;;;;1.17;0.73;;;;;;;;;;5050085;28;20069;-44
2023/04/08 17:56:53;;;;;;;1.25;0.90;;;;;;;;;;5065408;28;20634;-46
2023/04/08 17:59:20;;;;;;;1.13;0.98;;;;;;;;;;5063806;28;20073;-45
2023/04/08 18:01:46;;;;;;;1.15;1.00;;;;;;;;;;5063501;28;20077;-45
2023/04/08 18:04:13;;;;;;;1.50;1.23;;;;;;;;;;5063770;28;20156;-46
2023/04/08 18:06:39;;;;;;;1.70;1.30;;;;;;;;;;5064381;28;20742;-44
2023/04/08 18:09:05;;;;;;;2.05;1.38;;;;;;;;;;5064306;28;20089;-46
2023/04/08 18:11:31;;;;;;;2.97;1.60;;;;;;;;;;5063709;28;20096;-44
2023/04/08 18:13:57;;;;;;;2.33;1.50;;;;;;;;;;5064968;28;20104;-46
2023/04/08 18:16:23;;;;;;;1.70;1.08;;;;;;;;;;5042989;28;20528;-44
2023/04/08 18:18:49;;;;;;;2.92;1.98;;;;;;;;;;5064564;28;20076;-45
2023/04/08 18:21:18;;;;;;;4.00;1.80;;;;;;;;;;5046307;28;20103;-44
2023/04/08 18:23:48;;;;;;;2.40;1.58;;;;;;;;;;5064848;28;20069;-45
2023/04/08 18:26:14;;;;;;;1.67;1.40;;;;;;;;;;5064035;28;20077;-45
2023/04/08 18:28:40;;;;;;;1.60;1.23;;;;;;;;;;5063823;28;20135;-44
2023/04/08 18:31:06;;;;;;;1.27;0.98;;;;;;;;;;5045047;28;20085;-48
2023/04/08 18:33:32;;;;;;;2.25;1.27;;;;;;;;;;5062466;28;20594;-44
2023/04/08 18:36:08;;;;;;;2.58;1.48;;;;;;;;;;5063873;28;20073;-46
2023/04/08 18:38:35;;;;;;;2.22;1.58;;;;;;;;;;5062796;28;20839;-50
2023/04/08 18:41:02;;;;;;;2.22;1.50;;;;;;;;;;5040934;28;20077;-46
2023/04/08 18:43:29;;;;;;;2.13;1.50;;;;;;;;;;5051842;28;20122;-47
2023/04/08 18:45:55;;;;;;;2.80;1.88;;;;;;;;;;5067659;28;20534;-44
2023/04/08 18:48:22;;;;;;;2.92;1.73;;;;;;;;;;5065922;28;20127;-47
2023/04/08 18:50:49;;;;;;;2.80;1.98;;;;;;;;;;5067325;28;20107;-45
2023/04/08 18:53:16;;;;;;;2.28;1.80;;;;;;;;;;5067534;28;20166;-44
2023/04/08 18:55:43;;;;;;;3.03;1.90;;;;;;;;;;5066112;28;20161;-44
2023/04/08 18:58:09;;;;;;;3.70;1.92;;;;;;;;;;5062211;28;20081;-46
2023/04/08 19:00:40;;;;;;;1.90;1.35;;;;;;;;;;5065044;28;20069;-46
2023/04/08 19:03:06;;;;;;;3.75;1.95;;;;;;;;;;5067912;28;20176;-45
2023/04/08 19:05:32;;;;;;;1.95;1.60;;;;;;;;;;5048472;28;20116;-44
2023/04/08 19:08:00;;;;;;;1.75;1.20;;;;;;;;;;5065567;28;21325;-46
2023/04/08 19:10:30;;;;;;;1.83;1.30;;;;;;;;;;5047427;28;20535;-44
2023/04/08 19:12:57;;;;;;;1.80;1.20;;;;;;;;;;5066690;28;20175;-46
2023/04/08 19:15:23;;;;;;;1.65;1.30;;;;;;;;;;5066533;28;20192;-46
2023/04/08 19:17:51;;;;;;;1.38;0.98;;;;;;;;;;5049414;28;20188;-43
2023/04/08 19:20:17;;;;;;;2.95;1.50;;;;;;;;;;5066246;28;20088;-45
2023/04/08 19:22:43;;;;;;;1.25;1.15;;;;;;;;;;5066137;28;20076;-44
2023/04/08 19:25:09;;;;;;;2.30;1.50;;;;;;;;;;5067106;28;20087;-47
2023/04/08 19:27:35;;;;;;;1.40;1.08;;;;;;;;;;5066429;28;20163;-44
2023/04/08 19:30:02;;;;;;;2.05;1.33;;;;;;;;;;5049512;28;20567;-43
2023/04/08 19:32:29;;;;;;;2.00;1.40;;;;;;;;;;5049047;28;20093;-45
2023/04/08 19:34:55;;;;;;;2.67;1.70;;;;;;;;;;5067374;28;20073;-44
2023/04/08 19:37:21;;;;;;;1.65;1.23;;;;;;;;;;5065687;28;20065;-44
2023/04/08 19:39:47;;;;;;;1.17;1.08;;;;;;;;;;5066037;28;20081;-45
2023/04/08 19:42:14;;;;;;;1.73;1.20;;;;;;;;;;5066722;28;20076;-43
2023/04/08 19:44:40;;;;;;;2.35;1.50;;;;;;;;;;5065681;28;20553;-45